sensor_id;sensor_type;location;lat;lon;timestamp;P1;durP1;ratioP1;P2;durP2;ratioP2
18857;SDS011;9558;50.178;8.370;2023-06-22T00:00:25;5.22;;;2.75;;
18857;SDS011;9558;50.178;8.370;2023-06-22T00:03:12;4.18;;;2.72;;
18857;SDS011;9558;50.178;8.370;2023-06-22T00:05:59;4.63;;;2.70;;
18857;SDS011;9558;50.178;8.370;2023-06-22T00:08:46;3.70;;;2.45;;
18857;SDS011;9558;50.178;8.370;2023-06-22T00:11:34;3.95;;;2.42;;
18857;SDS011;9558;50.178;8.370;2023-06-22T00:14:21;3.17;;;2.42;;
18857;SDS011;9558;50.178;8.370;2023-06-22T00:17:08;5.05;;;2.80;;
18857;SDS011;9558;50.178;8.370;2023-06-22T00:19:54;5.95;;;2.72;;
18857;SDS011;9558;50.178;8.370;2023-06-22T00:22:44;4.82;;;3.42;;
18857;SDS011;9558;50.178;8.370;2023-06-22T00:25:30;3.53;;;2.40;;
18857;SDS011;9558;50.178;8.370;2023-06-22T00:28:18;3.75;;;2.40;;
18857;SDS011;9558;50.178;8.370;2023-06-22T00:31:05;7.50;;;3.40;;
18857;SDS011;9558;50.178;8.370;2023-06-22T00:33:52;4.72;;;2.67;;
18857;SDS011;9558;50.178;8.370;2023-06-22T00:36:39;4.45;;;2.58;;
18857;SDS011;9558;50.178;8.370;2023-06-22T00:39:26;5.28;;;2.97;;
18857;SDS011;9558;50.178;8.370;2023-06-22T00:42:13;3.67;;;2.60;;
18857;SDS011;9558;50.178;8.370;2023-06-22T00:45:01;3.55;;;2.70;;
18857;SDS011;9558;50.178;8.370;2023-06-22T00:47:47;3.45;;;2.70;;
18857;SDS011;9558;50.178;8.370;2023-06-22T00:50:34;6.03;;;2.67;;
18857;SDS011;9558;50.178;8.370;2023-06-22T00:53:22;4.70;;;2.83;;
18857;SDS011;9558;50.178;8.370;2023-06-22T00:56:09;5.72;;;2.55;;
18857;SDS011;9558;50.178;8.370;2023-06-22T00:58:57;3.97;;;2.88;;
18857;SDS011;9558;50.178;8.370;2023-06-22T01:01:47;5.93;;;2.97;;
18857;SDS011;9558;50.178;8.370;2023-06-22T01:04:34;4.97;;;2.72;;
18857;SDS011;9558;50.178;8.370;2023-06-22T01:07:25;4.80;;;2.72;;
18857;SDS011;9558;50.178;8.370;2023-06-22T01:10:18;6.30;;;2.95;;
18857;SDS011;9558;50.178;8.370;2023-06-22T01:13:14;5.18;;;2.97;;
18857;SDS011;9558;50.178;8.370;2023-06-22T01:16:05;7.28;;;3.67;;
18857;SDS011;9558;50.178;8.370;2023-06-22T01:18:59;5.15;;;3.17;;
18857;SDS011;9558;50.178;8.370;2023-06-22T01:21:51;4.75;;;3.47;;
18857;SDS011;9558;50.178;8.370;2023-06-22T01:24:45;6.13;;;4.20;;
18857;SDS011;9558;50.178;8.370;2023-06-22T01:27:47;6.22;;;3.00;;
18857;SDS011;9558;50.178;8.370;2023-06-22T01:30:47;8.52;;;3.28;;
18857;SDS011;9558;50.178;8.370;2023-06-22T01:33:51;5.75;;;3.85;;
18857;SDS011;9558;50.178;8.370;2023-06-22T01:36:41;6.20;;;4.03;;
18857;SDS011;9558;50.178;8.370;2023-06-22T01:39:28;7.18;;;3.13;;
18857;SDS011;9558;50.178;8.370;2023-06-22T01:42:16;5.80;;;3.67;;
18857;SDS011;9558;50.178;8.370;2023-06-22T01:45:03;9.38;;;3.80;;
18857;SDS011;9558;50.178;8.370;2023-06-22T01:47:53;4.88;;;3.53;;
18857;SDS011;9558;50.178;8.370;2023-06-22T01:50:40;8.13;;;3.40;;
18857;SDS011;9558;50.178;8.370;2023-06-22T01:53:27;7.65;;;3.72;;
18857;SDS011;9558;50.178;8.370;2023-06-22T01:56:15;5.28;;;3.58;;
18857;SDS011;9558;50.178;8.370;2023-06-22T01:59:04;7.72;;;3.03;;
18857;SDS011;9558;50.178;8.370;2023-06-22T02:01:57;5.18;;;3.67;;
18857;SDS011;9558;50.178;8.370;2023-06-22T02:04:51;6.47;;;3.83;;
18857;SDS011;9558;50.178;8.370;2023-06-22T02:07:42;5.88;;;3.78;;
18857;SDS011;9558;50.178;8.370;2023-06-22T02:10:32;5.05;;;3.78;;
18857;SDS011;9558;50.178;8.370;2023-06-22T02:13:21;6.18;;;3.70;;
18857;SDS011;9558;50.178;8.370;2023-06-22T02:16:10;4.93;;;3.55;;
18857;SDS011;9558;50.178;8.370;2023-06-22T02:18:58;6.35;;;4.07;;
18857;SDS011;9558;50.178;8.370;2023-06-22T02:21:49;5.35;;;3.72;;
18857;SDS011;9558;50.178;8.370;2023-06-22T02:24:36;6.50;;;4.20;;
18857;SDS011;9558;50.178;8.370;2023-06-22T02:27:23;6.13;;;4.13;;
18857;SDS011;9558;50.178;8.370;2023-06-22T02:30:10;6.97;;;4.28;;
18857;SDS011;9558;50.178;8.370;2023-06-22T02:32:56;8.88;;;4.97;;
18857;SDS011;9558;50.178;8.370;2023-06-22T02:35:44;7.90;;;4.20;;
18857;SDS011;9558;50.178;8.370;2023-06-22T02:38:35;6.47;;;3.90;;
18857;SDS011;9558;50.178;8.370;2023-06-22T02:41:22;6.45;;;3.63;;
18857;SDS011;9558;50.178;8.370;2023-06-22T02:44:09;7.60;;;4.60;;
18857;SDS011;9558;50.178;8.370;2023-06-22T02:46:55;8.35;;;5.03;;
18857;SDS011;9558;50.178;8.370;2023-06-22T02:49:42;7.63;;;4.45;;
18857;SDS011;9558;50.178;8.370;2023-06-22T02:52:30;8.77;;;4.50;;
18857;SDS011;9558;50.178;8.370;2023-06-22T02:55:18;7.97;;;4.05;;
18857;SDS011;9558;50.178;8.370;2023-06-22T02:58:05;6.22;;;4.10;;
18857;SDS011;9558;50.178;8.370;2023-06-22T03:00:51;7.60;;;4.15;;
18857;SDS011;9558;50.178;8.370;2023-06-22T03:03:39;8.98;;;4.53;;
18857;SDS011;9558;50.178;8.370;2023-06-22T03:06:26;7.70;;;4.50;;
18857;SDS011;9558;50.178;8.370;2023-06-22T03:09:13;6.15;;;3.88;;
18857;SDS011;9558;50.178;8.370;2023-06-22T03:12:02;7.00;;;4.63;;
18857;SDS011;9558;50.178;8.370;2023-06-22T03:14:49;11.60;;;4.57;;
18857;SDS011;9558;50.178;8.370;2023-06-22T03:17:36;7.93;;;4.72;;
18857;SDS011;9558;50.178;8.370;2023-06-22T03:20:24;7.90;;;4.72;;
18857;SDS011;9558;50.178;8.370;2023-06-22T03:23:12;7.70;;;4.18;;
18857;SDS011;9558;50.178;8.370;2023-06-22T03:25:59;7.50;;;4.38;;
18857;SDS011;9558;50.178;8.370;2023-06-22T03:28:47;6.82;;;4.30;;
18857;SDS011;9558;50.178;8.370;2023-06-22T03:31:34;5.88;;;3.83;;
18857;SDS011;9558;50.178;8.370;2023-06-22T03:34:20;6.68;;;4.07;;
18857;SDS011;9558;50.178;8.370;2023-06-22T03:37:07;5.35;;;4.25;;
18857;SDS011;9558;50.178;8.370;2023-06-22T03:39:54;10.85;;;4.90;;
18857;SDS011;9558;50.178;8.370;2023-06-22T03:42:41;6.95;;;4.47;;
18857;SDS011;9558;50.178;8.370;2023-06-22T03:45:29;7.13;;;4.55;;
18857;SDS011;9558;50.178;8.370;2023-06-22T03:48:15;9.00;;;4.97;;
18857;SDS011;9558;50.178;8.370;2023-06-22T03:51:02;6.80;;;4.40;;
18857;SDS011;9558;50.178;8.370;2023-06-22T03:53:49;8.88;;;5.00;;
18857;SDS011;9558;50.178;8.370;2023-06-22T03:56:36;6.63;;;4.65;;
18857;SDS011;9558;50.178;8.370;2023-06-22T03:59:23;7.57;;;4.70;;
18857;SDS011;9558;50.178;8.370;2023-06-22T04:02:12;8.40;;;5.03;;
18857;SDS011;9558;50.178;8.370;2023-06-22T04:04:58;7.18;;;4.78;;
18857;SDS011;9558;50.178;8.370;2023-06-22T04:07:45;9.00;;;4.60;;
18857;SDS011;9558;50.178;8.370;2023-06-22T04:10:32;6.45;;;4.47;;
18857;SDS011;9558;50.178;8.370;2023-06-22T04:13:19;6.57;;;4.30;;
18857;SDS011;9558;50.178;8.370;2023-06-22T04:16:06;6.90;;;4.40;;
18857;SDS011;9558;50.178;8.370;2023-06-22T04:18:54;7.00;;;4.50;;
18857;SDS011;9558;50.178;8.370;2023-06-22T04:21:41;8.68;;;4.90;;
18857;SDS011;9558;50.178;8.370;2023-06-22T04:24:27;7.28;;;4.90;;
18857;SDS011;9558;50.178;8.370;2023-06-22T04:27:14;8.05;;;4.65;;
18857;SDS011;9558;50.178;8.370;2023-06-22T04:30:01;6.85;;;4.80;;
18857;SDS011;9558;50.178;8.370;2023-06-22T04:32:48;7.45;;;4.97;;
18857;SDS011;9558;50.178;8.370;2023-06-22T04:35:44;9.25;;;5.38;;
18857;SDS011;9558;50.178;8.370;2023-06-22T04:38:31;9.18;;;5.35;;
18857;SDS011;9558;50.178;8.370;2023-06-22T04:41:19;6.15;;;4.45;;
18857;SDS011;9558;50.178;8.370;2023-06-22T04:44:09;7.18;;;5.13;;
18857;SDS011;9558;50.178;8.370;2023-06-22T04:46:57;10.70;;;4.88;;
18857;SDS011;9558;50.178;8.370;2023-06-22T04:49:47;9.93;;;5.15;;
18857;SDS011;9558;50.178;8.370;2023-06-22T04:52:35;6.55;;;4.78;;
18857;SDS011;9558;50.178;8.370;2023-06-22T04:55:22;7.97;;;4.75;;
18857;SDS011;9558;50.178;8.370;2023-06-22T04:58:11;8.50;;;4.90;;
18857;SDS011;9558;50.178;8.370;2023-06-22T05:00:58;7.75;;;5.28;;
18857;SDS011;9558;50.178;8.370;2023-06-22T05:03:45;6.70;;;4.78;;
18857;SDS011;9558;50.178;8.370;2023-06-22T05:06:31;10.70;;;4.93;;
18857;SDS011;9558;50.178;8.370;2023-06-22T05:09:20;8.23;;;5.28;;
18857;SDS011;9558;50.178;8.370;2023-06-22T05:12:07;8.38;;;5.43;;
18857;SDS011;9558;50.178;8.370;2023-06-22T05:14:54;7.38;;;5.35;;
18857;SDS011;9558;50.178;8.370;2023-06-22T05:17:41;7.43;;;4.93;;
18857;SDS011;9558;50.178;8.370;2023-06-22T05:20:28;7.63;;;5.53;;
18857;SDS011;9558;50.178;8.370;2023-06-22T05:23:15;9.02;;;4.93;;
18857;SDS011;9558;50.178;8.370;2023-06-22T05:26:03;8.93;;;5.03;;
18857;SDS011;9558;50.178;8.370;2023-06-22T05:28:50;7.60;;;5.32;;
18857;SDS011;9558;50.178;8.370;2023-06-22T05:31:37;10.02;;;4.88;;
18857;SDS011;9558;50.178;8.370;2023-06-22T05:34:25;8.10;;;5.07;;
18857;SDS011;9558;50.178;8.370;2023-06-22T05:37:12;7.70;;;4.97;;
18857;SDS011;9558;50.178;8.370;2023-06-22T05:39:59;7.47;;;4.80;;
18857;SDS011;9558;50.178;8.370;2023-06-22T05:42:47;7.97;;;4.80;;
18857;SDS011;9558;50.178;8.370;2023-06-22T05:45:34;8.07;;;4.53;;
18857;SDS011;9558;50.178;8.370;2023-06-22T05:48:20;6.38;;;4.75;;
18857;SDS011;9558;50.178;8.370;2023-06-22T05:51:07;8.50;;;4.65;;
18857;SDS011;9558;50.178;8.370;2023-06-22T05:53:54;6.28;;;4.57;;
18857;SDS011;9558;50.178;8.370;2023-06-22T05:56:41;6.57;;;4.60;;
18857;SDS011;9558;50.178;8.370;2023-06-22T05:59:29;6.68;;;5.07;;
18857;SDS011;9558;50.178;8.370;2023-06-22T06:02:16;8.35;;;5.10;;
18857;SDS011;9558;50.178;8.370;2023-06-22T06:05:02;7.13;;;5.13;;
18857;SDS011;9558;50.178;8.370;2023-06-22T06:07:50;8.52;;;5.13;;
18857;SDS011;9558;50.178;8.370;2023-06-22T06:10:36;7.60;;;4.45;;
18857;SDS011;9558;50.178;8.370;2023-06-22T06:13:23;8.32;;;4.75;;
18857;SDS011;9558;50.178;8.370;2023-06-22T06:16:12;11.02;;;5.25;;
18857;SDS011;9558;50.178;8.370;2023-06-22T06:18:59;6.90;;;4.90;;
18857;SDS011;9558;50.178;8.370;2023-06-22T06:21:45;9.50;;;4.97;;
18857;SDS011;9558;50.178;8.370;2023-06-22T06:24:32;8.48;;;4.90;;
18857;SDS011;9558;50.178;8.370;2023-06-22T06:27:19;8.30;;;5.10;;
18857;SDS011;9558;50.178;8.370;2023-06-22T06:30:07;8.40;;;5.05;;
18857;SDS011;9558;50.178;8.370;2023-06-22T06:32:56;6.25;;;4.28;;
18857;SDS011;9558;50.178;8.370;2023-06-22T06:35:43;8.70;;;4.40;;
18857;SDS011;9558;50.178;8.370;2023-06-22T06:38:30;6.38;;;4.10;;
18857;SDS011;9558;50.178;8.370;2023-06-22T06:41:18;6.05;;;3.83;;
18857;SDS011;9558;50.178;8.370;2023-06-22T06:44:09;6.20;;;4.38;;
18857;SDS011;9558;50.178;8.370;2023-06-22T06:46:56;7.97;;;3.92;;
18857;SDS011;9558;50.178;8.370;2023-06-22T06:49:44;7.07;;;4.22;;
18857;SDS011;9558;50.178;8.370;2023-06-22T06:52:31;6.50;;;4.18;;
18857;SDS011;9558;50.178;8.370;2023-06-22T06:55:18;6.05;;;4.18;;
18857;SDS011;9558;50.178;8.370;2023-06-22T06:58:05;5.85;;;4.10;;
18857;SDS011;9558;50.178;8.370;2023-06-22T07:00:53;5.95;;;4.03;;
18857;SDS011;9558;50.178;8.370;2023-06-22T07:03:40;6.38;;;3.90;;
18857;SDS011;9558;50.178;8.370;2023-06-22T07:06:28;6.97;;;4.35;;
18857;SDS011;9558;50.178;8.370;2023-06-22T07:09:17;4.93;;;3.92;;
18857;SDS011;9558;50.178;8.370;2023-06-22T07:12:05;5.68;;;4.40;;
18857;SDS011;9558;50.178;8.370;2023-06-22T07:14:52;6.57;;;4.25;;
18857;SDS011;9558;50.178;8.370;2023-06-22T07:17:39;7.70;;;4.30;;
18857;SDS011;9558;50.178;8.370;2023-06-22T07:20:26;6.75;;;4.53;;
18857;SDS011;9558;50.178;8.370;2023-06-22T07:23:16;5.75;;;4.20;;
18857;SDS011;9558;50.178;8.370;2023-06-22T07:26:03;8.35;;;4.53;;
18857;SDS011;9558;50.178;8.370;2023-06-22T07:28:51;4.72;;;3.75;;
18857;SDS011;9558;50.178;8.370;2023-06-22T07:31:38;7.50;;;4.50;;
18857;SDS011;9558;50.178;8.370;2023-06-22T07:34:26;4.85;;;4.10;;
18857;SDS011;9558;50.178;8.370;2023-06-22T07:37:13;4.80;;;3.97;;
18857;SDS011;9558;50.178;8.370;2023-06-22T07:40:01;5.97;;;4.57;;
18857;SDS011;9558;50.178;8.370;2023-06-22T07:42:51;6.70;;;4.25;;
18857;SDS011;9558;50.178;8.370;2023-06-22T07:45:38;6.07;;;3.83;;
18857;SDS011;9558;50.178;8.370;2023-06-22T07:48:27;8.48;;;4.20;;
18857;SDS011;9558;50.178;8.370;2023-06-22T07:51:14;5.07;;;4.57;;
18857;SDS011;9558;50.178;8.370;2023-06-22T07:54:01;6.32;;;4.80;;
18857;SDS011;9558;50.178;8.370;2023-06-22T07:56:49;5.80;;;4.57;;
18857;SDS011;9558;50.178;8.370;2023-06-22T07:59:36;5.35;;;4.00;;
18857;SDS011;9558;50.178;8.370;2023-06-22T08:02:23;6.53;;;4.30;;
18857;SDS011;9558;50.178;8.370;2023-06-22T08:05:10;4.70;;;4.10;;
18857;SDS011;9558;50.178;8.370;2023-06-22T08:07:58;4.93;;;4.18;;
18857;SDS011;9558;50.178;8.370;2023-06-22T08:10:45;6.32;;;4.00;;
18857;SDS011;9558;50.178;8.370;2023-06-22T08:13:33;8.35;;;4.50;;
18857;SDS011;9558;50.178;8.370;2023-06-22T08:16:20;7.97;;;4.20;;
18857;SDS011;9558;50.178;8.370;2023-06-22T08:19:07;6.43;;;4.60;;
18857;SDS011;9558;50.178;8.370;2023-06-22T08:21:53;5.05;;;4.18;;
18857;SDS011;9558;50.178;8.370;2023-06-22T08:24:40;5.50;;;3.90;;
18857;SDS011;9558;50.178;8.370;2023-06-22T08:27:27;5.63;;;4.32;;
18857;SDS011;9558;50.178;8.370;2023-06-22T08:30:17;7.28;;;4.43;;
18857;SDS011;9558;50.178;8.370;2023-06-22T08:33:04;6.18;;;4.07;;
18857;SDS011;9558;50.178;8.370;2023-06-22T08:35:51;5.70;;;4.03;;
18857;SDS011;9558;50.178;8.370;2023-06-22T08:38:38;4.65;;;3.70;;
18857;SDS011;9558;50.178;8.370;2023-06-22T08:41:25;5.00;;;3.75;;
18857;SDS011;9558;50.178;8.370;2023-06-22T08:44:12;6.50;;;4.32;;
18857;SDS011;9558;50.178;8.370;2023-06-22T08:47:01;6.40;;;4.68;;
18857;SDS011;9558;50.178;8.370;2023-06-22T08:49:49;5.55;;;4.20;;
18857;SDS011;9558;50.178;8.370;2023-06-22T08:52:35;5.72;;;4.38;;
18857;SDS011;9558;50.178;8.370;2023-06-22T08:55:23;4.70;;;4.20;;
18857;SDS011;9558;50.178;8.370;2023-06-22T08:58:09;5.18;;;4.50;;
18857;SDS011;9558;50.178;8.370;2023-06-22T09:00:56;6.80;;;4.50;;
18857;SDS011;9558;50.178;8.370;2023-06-22T09:03:48;6.28;;;4.45;;
18857;SDS011;9558;50.178;8.370;2023-06-22T09:06:39;4.97;;;4.13;;
18857;SDS011;9558;50.178;8.370;2023-06-22T09:09:30;4.82;;;4.07;;
18857;SDS011;9558;50.178;8.370;2023-06-22T09:12:17;6.28;;;3.97;;
18857;SDS011;9558;50.178;8.370;2023-06-22T09:15:05;4.90;;;4.30;;
18857;SDS011;9558;50.178;8.370;2023-06-22T09:17:53;5.95;;;4.30;;
18857;SDS011;9558;50.178;8.370;2023-06-22T09:20:42;6.40;;;4.57;;
18857;SDS011;9558;50.178;8.370;2023-06-22T09:23:29;7.45;;;4.40;;
18857;SDS011;9558;50.178;8.370;2023-06-22T09:26:16;6.68;;;4.85;;
18857;SDS011;9558;50.178;8.370;2023-06-22T09:29:04;6.15;;;4.32;;
18857;SDS011;9558;50.178;8.370;2023-06-22T09:31:51;5.57;;;4.15;;
18857;SDS011;9558;50.178;8.370;2023-06-22T09:34:38;5.50;;;4.30;;
18857;SDS011;9558;50.178;8.370;2023-06-22T09:37:27;5.93;;;4.43;;
18857;SDS011;9558;50.178;8.370;2023-06-22T09:40:14;6.25;;;4.32;;
18857;SDS011;9558;50.178;8.370;2023-06-22T09:43:02;6.63;;;4.70;;
18857;SDS011;9558;50.178;8.370;2023-06-22T09:45:49;5.38;;;3.83;;
18857;SDS011;9558;50.178;8.370;2023-06-22T09:48:36;5.82;;;4.43;;
18857;SDS011;9558;50.178;8.370;2023-06-22T09:51:23;6.57;;;5.07;;
18857;SDS011;9558;50.178;8.370;2023-06-22T09:54:11;7.75;;;4.63;;
18857;SDS011;9558;50.178;8.370;2023-06-22T09:56:58;5.25;;;4.65;;
18857;SDS011;9558;50.178;8.370;2023-06-22T09:59:44;5.72;;;4.60;;
18857;SDS011;9558;50.178;8.370;2023-06-22T10:02:32;5.63;;;4.40;;
18857;SDS011;9558;50.178;8.370;2023-06-22T10:05:19;5.28;;;4.00;;
18857;SDS011;9558;50.178;8.370;2023-06-22T10:08:05;6.60;;;4.47;;
18857;SDS011;9558;50.178;8.370;2023-06-22T10:10:56;5.88;;;4.40;;
18857;SDS011;9558;50.178;8.370;2023-06-22T10:13:43;6.78;;;5.07;;
18857;SDS011;9558;50.178;8.370;2023-06-22T10:16:30;6.93;;;4.72;;
18857;SDS011;9558;50.178;8.370;2023-06-22T10:19:18;6.50;;;5.15;;
18857;SDS011;9558;50.178;8.370;2023-06-22T10:22:05;6.80;;;5.20;;
18857;SDS011;9558;50.178;8.370;2023-06-22T10:24:51;9.38;;;4.05;;
18857;SDS011;9558;50.178;8.370;2023-06-22T10:27:40;6.10;;;4.25;;
18857;SDS011;9558;50.178;8.370;2023-06-22T10:30:27;5.47;;;4.28;;
18857;SDS011;9558;50.178;8.370;2023-06-22T10:33:14;7.22;;;4.50;;
18857;SDS011;9558;50.178;8.370;2023-06-22T10:36:01;5.13;;;4.57;;
18857;SDS011;9558;50.178;8.370;2023-06-22T10:38:48;7.13;;;4.82;;
18857;SDS011;9558;50.178;8.370;2023-06-22T10:41:35;6.47;;;4.85;;
18857;SDS011;9558;50.178;8.370;2023-06-22T10:44:23;6.40;;;5.05;;
18857;SDS011;9558;50.178;8.370;2023-06-22T10:47:10;5.78;;;4.45;;
18857;SDS011;9558;50.178;8.370;2023-06-22T10:49:57;6.55;;;4.93;;
18857;SDS011;9558;50.178;8.370;2023-06-22T10:52:44;6.75;;;4.63;;
18857;SDS011;9558;50.178;8.370;2023-06-22T10:55:31;5.68;;;4.60;;
18857;SDS011;9558;50.178;8.370;2023-06-22T10:58:17;6.53;;;4.70;;
18857;SDS011;9558;50.178;8.370;2023-06-22T11:01:05;5.30;;;4.55;;
18857;SDS011;9558;50.178;8.370;2023-06-22T11:03:52;5.78;;;4.68;;
18857;SDS011;9558;50.178;8.370;2023-06-22T11:06:39;6.35;;;4.82;;
18857;SDS011;9558;50.178;8.370;2023-06-22T11:09:26;5.25;;;4.38;;
18857;SDS011;9558;50.178;8.370;2023-06-22T11:12:12;5.45;;;4.30;;
18857;SDS011;9558;50.178;8.370;2023-06-22T11:14:59;5.97;;;4.20;;
18857;SDS011;9558;50.178;8.370;2023-06-22T11:17:47;5.30;;;3.95;;
18857;SDS011;9558;50.178;8.370;2023-06-22T11:20:34;6.10;;;5.13;;
18857;SDS011;9558;50.178;8.370;2023-06-22T11:23:24;5.80;;;4.10;;
18857;SDS011;9558;50.178;8.370;2023-06-22T11:26:11;4.97;;;3.83;;
18857;SDS011;9558;50.178;8.370;2023-06-22T11:28:58;8.50;;;4.05;;
18857;SDS011;9558;50.178;8.370;2023-06-22T11:31:45;5.22;;;3.80;;
18857;SDS011;9558;50.178;8.370;2023-06-22T11:34:33;5.85;;;3.88;;
18857;SDS011;9558;50.178;8.370;2023-06-22T11:37:20;6.45;;;3.50;;
18857;SDS011;9558;50.178;8.370;2023-06-22T11:40:08;6.05;;;3.47;;
18857;SDS011;9558;50.178;8.370;2023-06-22T11:42:56;7.88;;;3.83;;
18857;SDS011;9558;50.178;8.370;2023-06-22T11:45:43;5.95;;;3.70;;
18857;SDS011;9558;50.178;8.370;2023-06-22T11:48:29;5.85;;;4.15;;
18857;SDS011;9558;50.178;8.370;2023-06-22T11:51:18;7.63;;;4.47;;
18857;SDS011;9558;50.178;8.370;2023-06-22T11:54:04;7.30;;;3.95;;
18857;SDS011;9558;50.178;8.370;2023-06-22T11:56:51;5.80;;;3.83;;
18857;SDS011;9558;50.178;8.370;2023-06-22T11:59:38;7.38;;;4.43;;
18857;SDS011;9558;50.178;8.370;2023-06-22T12:02:25;5.93;;;4.03;;
18857;SDS011;9558;50.178;8.370;2023-06-22T12:05:11;5.22;;;3.60;;
18857;SDS011;9558;50.178;8.370;2023-06-22T12:08:00;5.20;;;3.83;;
18857;SDS011;9558;50.178;8.370;2023-06-22T12:10:47;7.00;;;3.80;;
18857;SDS011;9558;50.178;8.370;2023-06-22T12:13:34;6.70;;;3.67;;
18857;SDS011;9558;50.178;8.370;2023-06-22T12:16:20;5.72;;;3.88;;
18857;SDS011;9558;50.178;8.370;2023-06-22T12:19:07;6.93;;;3.97;;
18857;SDS011;9558;50.178;8.370;2023-06-22T12:21:54;5.57;;;4.03;;
18857;SDS011;9558;50.178;8.370;2023-06-22T12:24:42;6.20;;;4.20;;
18857;SDS011;9558;50.178;8.370;2023-06-22T12:27:29;5.43;;;3.95;;
18857;SDS011;9558;50.178;8.370;2023-06-22T12:30:16;10.90;;;4.10;;
18857;SDS011;9558;50.178;8.370;2023-06-22T12:33:03;6.22;;;4.22;;
18857;SDS011;9558;50.178;8.370;2023-06-22T12:35:50;6.80;;;4.30;;
18857;SDS011;9558;50.178;8.370;2023-06-22T12:38:36;5.60;;;3.78;;
18857;SDS011;9558;50.178;8.370;2023-06-22T12:41:24;6.53;;;3.78;;
18857;SDS011;9558;50.178;8.370;2023-06-22T12:44:11;4.93;;;4.18;;
18857;SDS011;9558;50.178;8.370;2023-06-22T12:46:58;6.60;;;4.07;;
18857;SDS011;9558;50.178;8.370;2023-06-22T12:49:45;5.63;;;3.95;;
18857;SDS011;9558;50.178;8.370;2023-06-22T12:52:31;6.60;;;3.72;;
18857;SDS011;9558;50.178;8.370;2023-06-22T12:55:18;6.85;;;3.60;;
18857;SDS011;9558;50.178;8.370;2023-06-22T12:58:06;7.95;;;3.92;;
18857;SDS011;9558;50.178;8.370;2023-06-22T13:00:53;5.53;;;3.60;;
18857;SDS011;9558;50.178;8.370;2023-06-22T13:03:41;5.93;;;4.00;;
18857;SDS011;9558;50.178;8.370;2023-06-22T13:06:28;7.45;;;3.60;;
18857;SDS011;9558;50.178;8.370;2023-06-22T13:09:15;5.82;;;3.67;;
18857;SDS011;9558;50.178;8.370;2023-06-22T13:12:03;8.68;;;3.90;;
18857;SDS011;9558;50.178;8.370;2023-06-22T13:14:52;6.20;;;4.15;;
18857;SDS011;9558;50.178;8.370;2023-06-22T13:17:39;6.38;;;3.38;;
18857;SDS011;9558;50.178;8.370;2023-06-22T13:20:25;9.02;;;3.55;;
18857;SDS011;9558;50.178;8.370;2023-06-22T13:23:13;7.13;;;3.60;;
18857;SDS011;9558;50.178;8.370;2023-06-22T13:26:00;8.52;;;3.78;;
18857;SDS011;9558;50.178;8.370;2023-06-22T13:28:46;7.38;;;3.92;;
18857;SDS011;9558;50.178;8.370;2023-06-22T13:31:34;5.28;;;3.83;;
18857;SDS011;9558;50.178;8.370;2023-06-22T13:34:21;7.80;;;4.47;;
18857;SDS011;9558;50.178;8.370;2023-06-22T13:37:09;6.00;;;4.22;;
18857;SDS011;9558;50.178;8.370;2023-06-22T13:39:56;5.70;;;3.70;;
18857;SDS011;9558;50.178;8.370;2023-06-22T13:42:44;6.10;;;4.13;;
18857;SDS011;9558;50.178;8.370;2023-06-22T13:45:31;6.13;;;4.07;;
18857;SDS011;9558;50.178;8.370;2023-06-22T13:48:19;5.47;;;4.03;;
18857;SDS011;9558;50.178;8.370;2023-06-22T13:51:06;6.07;;;4.05;;
18857;SDS011;9558;50.178;8.370;2023-06-22T13:53:53;7.50;;;4.30;;
18857;SDS011;9558;50.178;8.370;2023-06-22T13:56:40;7.18;;;4.32;;
18857;SDS011;9558;50.178;8.370;2023-06-22T13:59:26;5.78;;;4.35;;
18857;SDS011;9558;50.178;8.370;2023-06-22T14:02:13;6.63;;;4.55;;
18857;SDS011;9558;50.178;8.370;2023-06-22T14:05:01;7.32;;;4.78;;
18857;SDS011;9558;50.178;8.370;2023-06-22T14:07:48;6.88;;;4.47;;
18857;SDS011;9558;50.178;8.370;2023-06-22T14:10:35;7.10;;;4.18;;
18857;SDS011;9558;50.178;8.370;2023-06-22T14:13:21;7.97;;;4.70;;
18857;SDS011;9558;50.178;8.370;2023-06-22T14:16:08;7.70;;;4.70;;
18857;SDS011;9558;50.178;8.370;2023-06-22T14:18:55;6.05;;;4.55;;
18857;SDS011;9558;50.178;8.370;2023-06-22T14:21:43;9.10;;;4.40;;
18857;SDS011;9558;50.178;8.370;2023-06-22T14:24:30;6.13;;;3.90;;
18857;SDS011;9558;50.178;8.370;2023-06-22T14:27:16;6.68;;;4.57;;
18857;SDS011;9558;50.178;8.370;2023-06-22T14:30:04;6.13;;;4.10;;
18857;SDS011;9558;50.178;8.370;2023-06-22T14:32:51;6.40;;;4.57;;
18857;SDS011;9558;50.178;8.370;2023-06-22T14:35:38;8.65;;;4.80;;
18857;SDS011;9558;50.178;8.370;2023-06-22T14:38:26;6.28;;;4.68;;
18857;SDS011;9558;50.178;8.370;2023-06-22T14:41:13;6.72;;;4.28;;
18857;SDS011;9558;50.178;8.370;2023-06-22T14:44:02;8.43;;;4.30;;
18857;SDS011;9558;50.178;8.370;2023-06-22T14:46:49;8.02;;;3.72;;
18857;SDS011;9558;50.178;8.370;2023-06-22T14:49:35;5.32;;;3.42;;
18857;SDS011;9558;50.178;8.370;2023-06-22T14:52:22;8.55;;;3.22;;
18857;SDS011;9558;50.178;8.370;2023-06-22T14:55:10;10.05;;;2.85;;
18857;SDS011;9558;50.178;8.370;2023-06-22T14:57:57;5.95;;;2.55;;
18857;SDS011;9558;50.178;8.370;2023-06-22T15:00:44;4.65;;;2.83;;
18857;SDS011;9558;50.178;8.370;2023-06-22T15:03:31;3.22;;;2.33;;
18857;SDS011;9558;50.178;8.370;2023-06-22T15:06:18;6.38;;;3.00;;
18857;SDS011;9558;50.178;8.370;2023-06-22T15:09:04;5.03;;;2.72;;
18857;SDS011;9558;50.178;8.370;2023-06-22T15:11:52;4.43;;;2.60;;
18857;SDS011;9558;50.178;8.370;2023-06-22T15:14:39;6.82;;;2.83;;
18857;SDS011;9558;50.178;8.370;2023-06-22T15:17:26;6.68;;;2.97;;
18857;SDS011;9558;50.178;8.370;2023-06-22T15:20:14;7.80;;;2.50;;
18857;SDS011;9558;50.178;8.370;2023-06-22T15:23:01;6.60;;;2.75;;
18857;SDS011;9558;50.178;8.370;2023-06-22T15:25:48;5.55;;;1.88;;
18857;SDS011;9558;50.178;8.370;2023-06-22T15:28:36;3.13;;;1.45;;
18857;SDS011;9558;50.178;8.370;2023-06-22T15:31:23;3.95;;;1.27;;
18857;SDS011;9558;50.178;8.370;2023-06-22T15:34:10;8.80;;;2.13;;
18857;SDS011;9558;50.178;8.370;2023-06-22T15:36:59;3.05;;;1.75;;
18857;SDS011;9558;50.178;8.370;2023-06-22T15:39:46;8.32;;;2.22;;
18857;SDS011;9558;50.178;8.370;2023-06-22T15:42:33;5.25;;;2.35;;
18857;SDS011;9558;50.178;8.370;2023-06-22T15:45:22;5.97;;;2.05;;
18857;SDS011;9558;50.178;8.370;2023-06-22T15:48:09;3.85;;;1.90;;
18857;SDS011;9558;50.178;8.370;2023-06-22T15:50:55;9.30;;;2.00;;
18857;SDS011;9558;50.178;8.370;2023-06-22T15:53:43;4.70;;;1.67;;
18857;SDS011;9558;50.178;8.370;2023-06-22T15:56:29;4.75;;;1.80;;
18857;SDS011;9558;50.178;8.370;2023-06-22T15:59:16;5.22;;;2.05;;
18857;SDS011;9558;50.178;8.370;2023-06-22T16:02:05;5.95;;;2.00;;
18857;SDS011;9558;50.178;8.370;2023-06-22T16:04:54;8.13;;;2.60;;
18857;SDS011;9558;50.178;8.370;2023-06-22T16:07:47;6.35;;;2.20;;
18857;SDS011;9558;50.178;8.370;2023-06-22T16:10:34;5.38;;;1.90;;
18857;SDS011;9558;50.178;8.370;2023-06-22T16:13:21;4.03;;;1.58;;
18857;SDS011;9558;50.178;8.370;2023-06-22T16:16:08;4.80;;;1.73;;
18857;SDS011;9558;50.178;8.370;2023-06-22T16:18:56;3.92;;;2.20;;
18857;SDS011;9558;50.178;8.370;2023-06-22T16:21:43;5.80;;;1.85;;
18857;SDS011;9558;50.178;8.370;2023-06-22T16:24:29;4.63;;;1.30;;
18857;SDS011;9558;50.178;8.370;2023-06-22T16:27:17;6.35;;;1.63;;
18857;SDS011;9558;50.178;8.370;2023-06-22T16:30:05;5.07;;;1.65;;
18857;SDS011;9558;50.178;8.370;2023-06-22T16:32:57;3.35;;;0.90;;
18857;SDS011;9558;50.178;8.370;2023-06-22T16:35:46;3.80;;;1.50;;
18857;SDS011;9558;50.178;8.370;2023-06-22T16:38:33;5.30;;;1.40;;
18857;SDS011;9558;50.178;8.370;2023-06-22T16:41:19;4.07;;;1.20;;
18857;SDS011;9558;50.178;8.370;2023-06-22T16:44:07;3.22;;;1.50;;
18857;SDS011;9558;50.178;8.370;2023-06-22T16:46:54;5.03;;;1.60;;
18857;SDS011;9558;50.178;8.370;2023-06-22T16:49:41;5.68;;;1.70;;
18857;SDS011;9558;50.178;8.370;2023-06-22T16:52:30;5.72;;;1.73;;
18857;SDS011;9558;50.178;8.370;2023-06-22T16:55:17;3.38;;;1.42;;
18857;SDS011;9558;50.178;8.370;2023-06-22T16:58:07;5.88;;;1.67;;
18857;SDS011;9558;50.178;8.370;2023-06-22T17:00:58;2.28;;;1.42;;
18857;SDS011;9558;50.178;8.370;2023-06-22T17:03:48;3.58;;;1.73;;